createdAt,value
2023-02-14T00:00:50.090Z,103718.03
2023-02-14T00:03:16.822Z,103718.84
2023-02-14T00:05:43.429Z,103717.81
2023-02-14T00:08:10.289Z,103716.84
2023-02-14T00:10:36.885Z,103715.75
2023-02-14T00:13:04.681Z,103711.25
2023-02-14T00:15:31.319Z,103704.94
2023-02-14T00:18:00.923Z,103702.25
2023-02-14T00:20:28.463Z,103710.16
2023-02-14T00:22:55.190Z,103708.25
2023-02-14T00:25:21.766Z,103702.84
2023-02-14T00:27:48.387Z,103710.53
2023-02-14T00:30:15.365Z,103707.81
2023-02-14T00:32:43.052Z,103706.81
2023-02-14T00:35:10.702Z,103708.59
2023-02-14T00:37:37.723Z,103707.72
2023-02-14T00:40:06.333Z,103705.00
2023-02-14T00:42:33.117Z,103703.06
2023-02-14T00:44:59.671Z,103704.72
2023-02-14T00:47:26.353Z,103705.44
2023-02-14T00:49:52.940Z,103702.66
2023-02-14T00:52:19.514Z,103709.59
2023-02-14T00:54:46.176Z,103705.88
2023-02-14T00:57:12.768Z,103702.25
2023-02-14T00:59:39.341Z,103698.53
2023-02-14T01:02:05.938Z,103704.75
2023-02-14T01:04:32.599Z,103696.78
2023-02-14T01:06:59.116Z,103688.84
2023-02-14T01:09:25.642Z,103689.72
2023-02-14T01:11:52.177Z,103694.09
2023-02-14T01:14:18.701Z,103688.72
2023-02-14T01:16:45.440Z,103688.50
2023-02-14T01:19:12.074Z,103688.44
2023-02-14T01:21:38.616Z,103685.63
2023-02-14T01:24:07.671Z,103676.69
2023-02-14T01:26:35.185Z,103681.03
2023-02-14T01:29:03.149Z,103683.53
2023-02-14T01:31:32.574Z,103683.47
2023-02-14T01:34:00.311Z,103683.25
2023-02-14T01:36:38.867Z,103682.28
2023-02-14T01:39:13.483Z,103678.59
2023-02-14T01:41:43.178Z,103678.50
2023-02-14T01:44:15.368Z,103681.03
2023-02-14T01:46:43.841Z,103681.88
2023-02-14T01:49:16.401Z,103680.00
2023-02-14T01:51:53.110Z,103682.53
2023-02-14T01:54:25.983Z,103678.13
2023-02-14T01:57:00.310Z,103677.25
2023-02-14T01:59:34.550Z,103679.66
2023-02-14T02:02:01.287Z,103679.72
2023-02-14T02:04:41.119Z,103678.00
2023-02-14T02:07:14.931Z,103679.72
2023-02-14T02:09:51.298Z,103675.38
2023-02-14T02:12:17.965Z,103671.78
2023-02-14T02:14:45.743Z,103677.84
2023-02-14T02:17:12.276Z,103680.47
2023-02-14T02:20:20.631Z,103675.06
2023-02-14T02:22:56.282Z,103672.38
2023-02-14T02:25:37.956Z,103673.22
2023-02-14T02:28:43.463Z,103675.78
2023-02-14T02:31:47.930Z,103669.56
2023-02-14T02:34:52.278Z,103675.63
2023-02-14T02:37:18.712Z,103673.00
2023-02-14T02:39:45.243Z,103672.94
2023-02-14T02:42:26.856Z,103677.28
2023-02-14T02:45:11.099Z,103672.03
2023-02-14T02:47:45.995Z,103670.09
2023-02-14T02:51:04.426Z,103665.72
2023-02-14T02:53:58.034Z,103664.91
2023-02-14T02:56:46.415Z,103661.34
2023-02-14T02:59:21.850Z,103661.34
2023-02-14T03:01:56.794Z,103658.56
2023-02-14T03:04:46.331Z,103655.69
2023-02-14T03:07:32.061Z,103655.78
2023-02-14T03:10:01.475Z,103657.59
2023-02-14T03:12:33.811Z,103654.97
2023-02-14T03:15:22.636Z,103658.47
2023-02-14T03:18:30.007Z,103653.06
2023-02-14T03:21:35.331Z,103644.31
2023-02-14T03:24:22.485Z,103641.69
2023-02-14T03:26:58.090Z,103639.88
2023-02-14T03:29:27.597Z,103640.78
2023-02-14T03:32:17.500Z,103640.94
2023-02-14T03:34:46.810Z,103646.94
2023-02-14T03:37:39.377Z,103646.84
2023-02-14T03:40:27.259Z,103641.59
2023-02-14T03:43:07.928Z,103640.66
2023-02-14T03:45:46.013Z,103643.34
2023-02-14T03:48:16.466Z,103640.72
2023-02-14T03:50:49.685Z,103644.84
2023-02-14T03:53:22.850Z,103638.78
2023-02-14T03:55:57.955Z,103641.41
2023-02-14T03:58:30.222Z,103639.59
2023-02-14T04:01:05.442Z,103636.81
2023-02-14T04:03:37.496Z,103637.56
2023-02-14T04:06:04.356Z,103637.66
2023-02-14T04:08:30.956Z,103642.00
2023-02-14T04:11:01.798Z,103647.22
2023-02-14T04:13:28.821Z,103645.41
2023-02-14T04:15:55.385Z,103645.25
2023-02-14T04:18:40.441Z,103639.94
2023-02-14T04:21:08.194Z,103645.25
2023-02-14T04:23:34.793Z,103651.16
2023-02-14T04:26:03.579Z,103640.56
2023-02-14T04:28:30.871Z,103641.13
2023-02-14T04:31:01.008Z,103640.25
2023-02-14T04:33:27.900Z,103654.19
2023-02-14T04:35:54.864Z,103641.06
2023-02-14T04:38:21.561Z,103650.47
2023-02-14T04:40:50.017Z,103647.84
2023-02-14T04:43:16.654Z,103653.81
2023-02-14T04:45:43.215Z,103643.09
2023-02-14T04:48:10.104Z,103637.84
2023-02-14T04:50:36.690Z,103633.38
2023-02-14T04:53:03.274Z,103635.75
2023-02-14T04:55:30.165Z,103633.06
2023-02-14T04:57:56.803Z,103635.75
2023-02-14T05:00:24.114Z,103636.66
2023-02-14T05:02:50.670Z,103638.31
2023-02-14T05:05:17.279Z,103632.09
2023-02-14T05:07:47.624Z,103633.75
2023-02-14T05:10:15.297Z,103635.41
2023-02-14T05:12:42.032Z,103629.19
2023-02-14T05:15:09.540Z,103630.81
2023-02-14T05:17:36.281Z,103629.91
2023-02-14T05:20:06.705Z,103628.03
2023-02-14T05:22:33.337Z,103626.19
2023-02-14T05:24:59.903Z,103628.81
2023-02-14T05:27:26.422Z,103626.84
2023-02-14T05:29:53.106Z,103626.69
2023-02-14T05:32:19.658Z,103634.47
2023-02-14T05:34:46.234Z,103630.00
2023-02-14T05:37:12.808Z,103629.84
2023-02-14T05:39:39.456Z,103628.88
2023-02-14T05:42:06.015Z,103617.28
2023-02-14T05:44:32.584Z,103616.41
2023-02-14T05:46:59.153Z,103620.78
2023-02-14T05:49:25.757Z,103623.34
2023-02-14T05:51:52.315Z,103626.78
2023-02-14T05:54:18.901Z,103625.78
2023-02-14T05:56:45.502Z,103624.88
2023-02-14T05:59:14.129Z,103628.25
2023-02-14T06:01:40.877Z,103634.22
2023-02-14T06:04:07.522Z,103633.34
2023-02-14T06:06:36.334Z,103623.63
2023-02-14T06:09:03.382Z,103621.72
2023-02-14T06:11:30.195Z,103621.72
2023-02-14T06:13:56.851Z,103622.56
2023-02-14T06:16:23.580Z,103620.75
2023-02-14T06:18:50.146Z,103621.56
2023-02-14T06:21:16.732Z,103631.97
2023-02-14T06:23:43.298Z,103633.69
2023-02-14T06:26:09.943Z,103641.50
2023-02-14T06:28:36.532Z,103637.97
2023-02-14T06:31:04.883Z,103634.38
2023-02-14T06:33:31.703Z,103637.81
2023-02-14T06:35:58.327Z,103639.53
2023-02-14T06:38:25.040Z,103636.00
2023-02-14T06:40:51.566Z,103635.94
2023-02-14T06:43:18.085Z,103640.19
2023-02-14T06:45:46.583Z,103641.91
2023-02-14T06:48:13.161Z,103646.25
2023-02-14T06:50:39.833Z,103645.41
2023-02-14T06:53:06.449Z,103645.41
2023-02-14T06:55:33.086Z,103635.94
2023-02-14T06:57:59.677Z,103646.41
2023-02-14T07:00:26.296Z,103638.53
2023-02-14T07:02:52.950Z,103638.63
2023-02-14T07:05:19.634Z,103638.63
2023-02-14T07:07:46.511Z,103633.47
2023-02-14T07:10:13.433Z,103635.28
2023-02-14T07:12:40.390Z,103631.84
2023-02-14T07:15:09.254Z,103640.66
2023-02-14T07:17:35.875Z,103633.75
2023-02-14T07:20:03.562Z,103635.50
2023-02-14T07:22:30.475Z,103633.84
2023-02-14T07:24:57.336Z,103640.06
2023-02-14T07:27:23.937Z,103627.78
2023-02-14T07:29:50.645Z,103626.06
2023-02-14T07:32:17.481Z,103627.25
2023-02-14T07:34:44.641Z,103641.59
2023-02-14T07:37:11.346Z,103637.38
2023-02-14T07:39:37.904Z,103639.28
2023-02-14T07:42:04.521Z,103642.28
2023-02-14T07:44:31.119Z,103644.16
2023-02-14T07:46:57.641Z,103646.09
2023-02-14T07:49:24.307Z,103647.16
2023-02-14T07:51:50.851Z,103643.84
2023-02-14T07:54:18.686Z,103651.06
2023-02-14T07:56:46.156Z,103642.38
2023-02-14T07:59:12.729Z,103645.34
2023-02-14T08:01:48.617Z,103642.00
2023-02-14T08:04:15.173Z,103633.31
2023-02-14T08:06:42.885Z,103636.34
2023-02-14T08:09:10.642Z,103630.50
2023-02-14T08:11:56.163Z,103636.78
2023-02-14T08:14:22.985Z,103634.44
2023-02-14T08:16:49.824Z,103633.78
2023-02-14T08:19:16.332Z,103638.56
2023-02-14T08:21:43.333Z,103638.78
2023-02-14T08:24:09.926Z,103634.50
2023-02-14T08:26:36.534Z,103642.66
2023-02-14T08:29:03.138Z,103633.28
2023-02-14T08:31:36.496Z,103637.00
2023-02-14T08:34:07.148Z,103634.59
2023-02-14T08:36:34.857Z,103637.56
2023-02-14T08:39:04.036Z,103634.38
2023-02-14T08:41:30.829Z,103638.13
2023-02-14T08:43:57.486Z,103639.28
2023-02-14T08:46:24.091Z,103641.38
2023-02-14T08:48:52.223Z,103642.66
2023-02-14T08:51:19.296Z,103645.84
2023-02-14T08:53:46.336Z,103634.88
2023-02-14T08:56:17.839Z,103637.09
2023-02-14T08:58:44.394Z,103635.72
2023-02-14T09:01:13.995Z,103629.06
2023-02-14T09:03:40.676Z,103628.59
2023-02-14T09:06:09.980Z,103628.16
2023-02-14T09:08:38.124Z,103630.38
2023-02-14T09:11:14.356Z,103624.66
2023-02-14T09:13:42.930Z,103622.44
2023-02-14T09:16:11.630Z,103625.44
2023-02-14T09:18:38.827Z,103625.75
2023-02-14T09:21:10.503Z,103626.25
2023-02-14T09:23:39.209Z,103615.56
2023-02-14T09:26:09.124Z,103620.22
2023-02-14T09:28:46.398Z,103613.75
2023-02-14T09:31:13.168Z,103615.31
2023-02-14T09:33:43.625Z,103613.28
2023-02-14T09:36:15.842Z,103606.84
2023-02-14T09:38:44.818Z,103600.19
2023-02-14T09:41:49.479Z,103593.69
2023-02-14T09:44:35.152Z,103599.19
2023-02-14T09:47:16.210Z,103600.03
2023-02-14T09:49:43.983Z,103594.63
2023-02-14T09:52:16.372Z,103595.22
2023-02-14T09:54:49.221Z,103583.34
2023-02-14T09:57:38.933Z,103579.44
2023-02-14T10:00:24.082Z,103577.91
2023-02-14T10:03:00.405Z,103580.91
2023-02-14T10:05:32.250Z,103575.06
2023-02-14T10:08:36.112Z,103573.56
2023-02-14T10:11:10.081Z,103569.34
2023-02-14T10:13:50.032Z,103574.09
2023-02-14T10:16:54.240Z,103575.16
2023-02-14T10:19:38.311Z,103568.16
2023-02-14T10:22:14.189Z,103572.72
2023-02-14T10:24:50.996Z,103579.91
2023-02-14T10:27:32.681Z,103569.38
2023-02-14T10:29:59.476Z,103563.22
2023-02-14T10:32:45.121Z,103572.19
2023-02-14T10:35:38.697Z,103557.19
2023-02-14T10:38:28.638Z,103567.00
2023-02-14T10:41:31.938Z,103565.19
2023-02-14T10:44:40.783Z,103557.22
2023-02-14T10:47:18.133Z,103552.84
2023-02-14T10:50:03.240Z,103561.75
2023-02-14T10:52:40.182Z,103556.47
2023-02-14T10:55:49.257Z,103552.03
2023-02-14T10:58:21.144Z,103555.56
2023-02-14T11:01:03.457Z,103545.78
2023-02-14T11:03:30.494Z,103548.47
2023-02-14T11:05:57.277Z,103548.44
2023-02-14T11:08:38.002Z,103535.88
2023-02-14T11:11:29.216Z,103537.63
2023-02-14T11:13:56.090Z,103529.56
2023-02-14T11:16:35.338Z,103532.19
2023-02-14T11:19:36.077Z,103527.72
2023-02-14T11:22:04.312Z,103516.09
2023-02-14T11:24:41.426Z,103518.75
2023-02-14T11:27:19.410Z,103511.53
2023-02-14T11:29:52.213Z,103511.44
2023-02-14T11:32:34.308Z,103512.31
2023-02-14T11:35:20.650Z,103512.22
2023-02-14T11:37:53.561Z,103513.19
2023-02-14T11:40:37.286Z,103502.50
2023-02-14T11:43:15.675Z,103500.72
2023-02-14T11:45:44.462Z,103499.91
2023-02-14T11:48:37.655Z,103491.00
2023-02-14T11:51:14.959Z,103485.78
2023-02-14T11:53:53.869Z,103480.47
2023-02-14T11:56:22.113Z,103487.66
2023-02-14T11:59:03.721Z,103482.38
2023-02-14T12:01:34.524Z,103472.63
2023-02-14T12:04:07.484Z,103474.47
2023-02-14T12:06:41.074Z,103475.38
2023-02-14T12:09:29.486Z,103478.94
2023-02-14T12:12:14.721Z,103465.59
2023-02-14T12:14:41.853Z,103468.25
2023-02-14T12:17:11.466Z,103466.50
2023-02-14T12:20:08.931Z,103466.50
2023-02-14T12:22:47.451Z,103465.63
2023-02-14T12:25:27.371Z,103455.84
2023-02-14T12:28:03.557Z,103454.06
2023-02-14T12:30:35.177Z,103452.28
2023-02-14T12:33:06.641Z,103443.38
2023-02-14T12:35:54.917Z,103444.25
2023-02-14T12:38:43.423Z,103446.91
2023-02-14T12:41:42.926Z,103438.03
2023-02-14T12:44:35.654Z,103435.38
2023-02-14T12:47:16.531Z,103433.56
2023-02-14T12:50:06.166Z,103432.66
2023-02-14T12:52:57.246Z,103432.66
2023-02-14T12:56:00.342Z,103422.88
2023-02-14T12:58:45.049Z,103419.34
2023-02-14T13:01:12.162Z,103412.19
2023-02-14T13:03:57.956Z,103415.75
2023-02-14T13:06:49.587Z,103408.66
2023-02-14T13:09:40.474Z,103405.06
2023-02-14T13:12:36.396Z,103395.28
2023-02-14T13:15:46.716Z,103389.97
2023-02-14T13:18:50.835Z,103389.94
2023-02-14T13:21:24.372Z,103384.63
2023-02-14T13:24:25.511Z,103377.50
2023-02-14T13:26:59.775Z,103365.94
2023-02-14T13:29:36.142Z,103373.03
2023-02-14T13:32:04.544Z,103367.72
2023-02-14T13:34:41.568Z,103366.84
2023-02-14T13:37:12.820Z,103364.16
2023-02-14T13:39:56.809Z,103361.50
2023-02-14T13:42:48.167Z,103359.72
2023-02-14T13:45:30.536Z,103368.59
2023-02-14T13:48:09.974Z,103363.25
2023-02-14T13:50:50.210Z,103355.25
2023-02-14T13:53:34.708Z,103349.03
2023-02-14T13:56:23.369Z,103347.25
2023-02-14T13:59:01.046Z,103352.59
2023-02-14T14:01:32.275Z,103349.03
2023-02-14T14:04:19.777Z,103342.78
2023-02-14T14:07:23.288Z,103341.00
2023-02-14T14:09:49.958Z,103344.56
2023-02-14T14:12:28.769Z,103344.56
2023-02-14T14:15:07.990Z,103339.22
2023-02-14T14:17:36.446Z,103336.56
2023-02-14T14:20:25.769Z,103327.69
2023-02-14T14:22:58.850Z,103329.44
2023-02-14T14:25:39.491Z,103326.75
2023-02-14T14:28:26.591Z,103328.56
2023-02-14T14:30:53.747Z,103324.09
2023-02-14T14:33:33.157Z,103324.13
2023-02-14T14:36:07.675Z,103331.22
2023-02-14T14:38:45.643Z,103328.56
2023-02-14T14:41:12.274Z,103325.03
2023-02-14T14:43:40.518Z,103323.25
2023-02-14T14:46:15.745Z,103323.22
2023-02-14T14:48:52.110Z,103322.34
2023-02-14T14:51:33.332Z,103320.56
2023-02-14T14:54:06.969Z,103319.66
2023-02-14T14:56:57.128Z,103319.66
2023-02-14T14:59:30.816Z,103313.44
2023-02-14T15:01:57.726Z,103317.91
2023-02-14T15:04:35.000Z,103320.56
2023-02-14T15:07:34.633Z,103317.88
2023-02-14T15:10:01.953Z,103311.69
2023-02-14T15:12:48.481Z,103312.53
2023-02-14T15:15:18.888Z,103316.94
2023-02-14T15:17:47.136Z,103324.94
2023-02-14T15:20:21.150Z,103313.41
2023-02-14T15:22:51.712Z,103317.84
2023-02-14T15:25:44.549Z,103320.50
2023-02-14T15:28:26.122Z,103317.81
2023-02-14T15:30:59.202Z,103319.59
2023-02-14T15:33:26.904Z,103311.59
2023-02-14T15:35:54.251Z,103319.59
2023-02-14T15:38:23.848Z,103319.56
2023-02-14T15:40:51.915Z,103313.31
2023-02-14T15:43:18.554Z,103317.78
2023-02-14T15:45:50.300Z,103317.78
2023-02-14T15:48:28.556Z,103310.66
2023-02-14T15:50:59.136Z,103309.75
2023-02-14T15:53:35.024Z,103299.97
2023-02-14T15:56:06.246Z,103303.53
2023-02-14T15:58:36.159Z,103300.88
2023-02-14T16:01:04.140Z,103307.03
2023-02-14T16:03:38.774Z,103304.38
2023-02-14T16:06:05.651Z,103293.69
2023-02-14T16:08:41.051Z,103300.78
2023-02-14T16:11:32.514Z,103291.00
2023-02-14T16:14:19.278Z,103296.28
2023-02-14T16:16:57.759Z,103297.16
2023-02-14T16:19:44.923Z,103294.47
2023-02-14T16:22:32.145Z,103296.22
2023-02-14T16:24:59.387Z,103289.97
2023-02-14T16:27:25.987Z,103291.72
2023-02-14T16:29:52.730Z,103290.78
2023-02-14T16:32:24.289Z,103287.19
2023-02-14T16:34:51.336Z,103293.34
2023-02-14T16:37:25.002Z,103287.97
2023-02-14T16:39:54.534Z,103290.56
2023-02-14T16:42:21.198Z,103286.00
2023-02-14T16:44:48.488Z,103288.63
2023-02-14T16:47:17.218Z,103290.34
2023-02-14T16:49:44.084Z,103283.16
2023-02-14T16:52:17.113Z,103283.06
2023-02-14T16:54:44.235Z,103287.47
2023-02-14T16:57:20.322Z,103290.06
2023-02-14T16:59:47.343Z,103290.81
2023-02-14T17:02:14.235Z,103296.09
2023-02-14T17:04:40.815Z,103294.22
2023-02-14T17:07:08.096Z,103287.03
2023-02-14T17:09:41.257Z,103295.78
2023-02-14T17:12:16.898Z,103301.00
2023-02-14T17:14:49.620Z,103304.41
2023-02-14T17:17:16.851Z,103302.53
2023-02-14T17:19:44.182Z,103302.44
2023-02-14T17:22:13.521Z,103308.50
2023-02-14T17:24:40.647Z,103311.06
2023-02-14T17:27:08.510Z,103318.06
2023-02-14T17:29:35.731Z,103320.56
2023-02-14T17:32:02.461Z,103321.31
2023-02-14T17:34:33.210Z,103328.25
2023-02-14T17:36:59.834Z,103319.19
2023-02-14T17:39:26.813Z,103327.06
2023-02-14T17:41:53.371Z,103321.59
2023-02-14T17:44:19.935Z,103320.63
2023-02-14T17:46:46.572Z,103324.91
2023-02-14T17:49:13.114Z,103308.00
2023-02-14T17:51:39.617Z,103319.38
2023-02-14T17:54:06.213Z,103316.56
2023-02-14T17:56:33.002Z,103321.75
2023-02-14T17:58:59.867Z,103312.78
2023-02-14T18:01:31.392Z,103310.84
2023-02-14T18:03:58.197Z,103312.50
2023-02-14T18:06:26.718Z,103318.56
2023-02-14T18:08:56.714Z,103313.09
2023-02-14T18:11:26.079Z,103313.00
2023-02-14T18:13:56.667Z,103308.44
2023-02-14T18:16:24.832Z,103309.16
2023-02-14T18:18:52.311Z,103313.50
2023-02-14T18:21:21.654Z,103316.88
2023-02-14T18:23:48.811Z,103312.38
2023-02-14T18:26:18.009Z,103314.06
2023-02-14T18:28:44.894Z,103311.28
2023-02-14T18:31:18.116Z,103306.69
2023-02-14T18:33:46.722Z,103312.81
2023-02-14T18:36:16.510Z,103308.25
2023-02-14T18:38:45.053Z,103301.06
2023-02-14T18:41:14.325Z,103297.34
2023-02-14T18:43:41.887Z,103297.19
2023-02-14T18:46:11.456Z,103290.13
2023-02-14T18:48:38.454Z,103289.06
2023-02-14T18:51:10.542Z,103296.91
2023-02-14T18:53:38.401Z,103296.75
2023-02-14T18:56:06.659Z,103291.34
2023-02-14T18:58:34.409Z,103287.66
2023-02-14T19:01:13.045Z,103289.34
2023-02-14T19:03:40.680Z,103283.91
2023-02-14T19:06:09.402Z,103279.41
2023-02-14T19:08:39.570Z,103277.56
2023-02-14T19:11:18.423Z,103277.47
2023-02-14T19:13:46.176Z,103277.38
2023-02-14T19:16:19.492Z,103279.91
2023-02-14T19:18:47.019Z,103275.38
2023-02-14T19:21:20.145Z,103275.34
2023-02-14T19:23:47.401Z,103269.06
2023-02-14T19:26:24.705Z,103270.69
2023-02-14T19:28:56.376Z,103272.31
2023-02-14T19:31:23.472Z,103269.59
2023-02-14T19:33:50.569Z,103267.69
2023-02-14T19:36:19.413Z,103258.72
2023-02-14T19:38:49.502Z,103261.22
2023-02-14T19:41:26.468Z,103265.56
2023-02-14T19:43:57.521Z,103263.69
2023-02-14T19:46:26.170Z,103250.34
2023-02-14T19:48:52.994Z,103256.50
2023-02-14T19:51:25.915Z,103260.72
2023-02-14T19:53:53.261Z,103261.44
2023-02-14T19:56:21.389Z,103262.22
2023-02-14T19:58:49.083Z,103263.00
2023-02-14T20:01:36.840Z,103255.03
2023-02-14T20:04:07.645Z,103261.00
2023-02-14T20:06:34.249Z,103258.22
2023-02-14T20:09:00.796Z,103257.28
2023-02-14T20:11:35.601Z,103256.22
2023-02-14T20:14:03.597Z,103251.75
2023-02-14T20:16:32.081Z,103249.84
2023-02-14T20:19:01.781Z,103247.38
2023-02-14T20:21:28.582Z,103244.63
2023-02-14T20:24:00.803Z,103244.44
2023-02-14T20:26:32.940Z,103247.91
2023-02-14T20:29:03.639Z,103243.44
2023-02-14T20:31:32.010Z,103247.66
2023-02-14T20:33:58.983Z,103243.97
2023-02-14T20:36:25.902Z,103247.34
2023-02-14T20:39:01.453Z,103237.63
2023-02-14T20:41:29.052Z,103241.06
2023-02-14T20:44:03.340Z,103239.13
2023-02-14T20:46:31.195Z,103235.53
2023-02-14T20:48:57.760Z,103234.63
2023-02-14T20:51:24.419Z,103223.97
2023-02-14T20:53:51.231Z,103234.38
2023-02-14T20:56:18.678Z,103226.28
2023-02-14T20:58:46.005Z,103224.50
2023-02-14T21:01:14.328Z,103220.09
2023-02-14T21:03:43.053Z,103217.31
2023-02-14T21:06:13.756Z,103224.28
2023-02-14T21:08:42.485Z,103212.00
2023-02-14T21:11:11.748Z,103212.78
2023-02-14T21:13:39.288Z,103209.09
2023-02-14T21:16:12.277Z,103207.38
2023-02-14T21:18:39.185Z,103207.25
2023-02-14T21:21:06.607Z,103214.22
2023-02-14T21:23:33.518Z,103209.56
2023-02-14T21:26:00.110Z,103207.72
2023-02-14T21:28:26.853Z,103206.81
2023-02-14T21:31:02.570Z,103206.63
2023-02-14T21:33:32.003Z,103212.69
2023-02-14T21:36:06.069Z,103199.31
2023-02-14T21:38:32.844Z,103199.31
2023-02-14T21:41:04.949Z,103181.78
2023-02-14T21:43:36.995Z,103188.72
2023-02-14T21:46:08.656Z,103190.38
2023-02-14T21:48:54.073Z,103185.88
2023-02-14T21:51:21.827Z,103182.16
2023-02-14T21:53:48.998Z,103187.31
2023-02-14T21:56:19.624Z,103184.50
2023-02-14T21:58:49.041Z,103184.44
2023-02-14T22:01:18.281Z,103180.84
2023-02-14T22:03:45.221Z,103180.69
2023-02-14T22:06:13.228Z,103187.66
2023-02-14T22:08:40.413Z,103182.28
2023-02-14T22:11:09.604Z,103183.84
2023-02-14T22:13:36.349Z,103178.53
2023-02-14T22:16:05.629Z,103187.38
2023-02-14T22:18:32.638Z,103181.09
2023-02-14T22:21:07.211Z,103187.13
2023-02-14T22:23:34.267Z,103188.81
2023-02-14T22:26:19.310Z,103175.59
2023-02-14T22:28:48.388Z,103185.09
2023-02-14T22:31:17.653Z,103171.88
2023-02-14T22:33:44.855Z,103175.31
2023-02-14T22:36:11.426Z,103175.16
2023-02-14T22:38:38.243Z,103170.63
2023-02-14T22:41:09.368Z,103170.56
2023-02-14T22:43:37.528Z,103176.66
2023-02-14T22:46:13.298Z,103177.47
2023-02-14T22:48:40.534Z,103169.38
2023-02-14T22:51:17.813Z,103166.75
2023-02-14T22:53:44.409Z,103166.69
2023-02-14T22:56:33.052Z,103167.44
2023-02-14T22:59:05.325Z,103160.25
2023-02-14T23:01:34.359Z,103161.28
2023-02-14T23:04:03.276Z,103159.31
2023-02-14T23:06:32.411Z,103160.16
2023-02-14T23:09:00.548Z,103160.16
2023-02-14T23:11:29.608Z,103162.69
2023-02-14T23:14:14.953Z,103158.09
2023-02-14T23:17:00.808Z,103161.31
2023-02-14T23:19:49.057Z,103178.03
2023-02-14T23:22:25.210Z,103173.53
2023-02-14T23:24:53.806Z,103175.28
2023-02-14T23:27:23.268Z,103177.84
2023-02-14T23:29:49.898Z,103175.06
2023-02-14T23:32:16.683Z,103176.69
2023-02-14T23:34:44.735Z,103177.41
2023-02-14T23:37:13.666Z,103173.78
2023-02-14T23:39:41.430Z,103183.34
2023-02-14T23:42:16.408Z,103169.38
2023-02-14T23:44:44.733Z,103166.75
2023-02-14T23:47:13.325Z,103162.25
2023-02-14T23:49:40.991Z,103160.34
2023-02-14T23:52:12.988Z,103175.22
2023-02-14T23:54:39.834Z,103168.13
2023-02-14T23:57:08.129Z,103164.44
2023-02-14T23:59:35.072Z,103164.50
